createdAt,value
2023-02-17T00:01:37.043Z,89.30
2023-02-17T00:04:04.960Z,88.95
2023-02-17T00:06:32.979Z,89.18
2023-02-17T00:09:02.167Z,89.49
2023-02-17T00:11:30.250Z,89.33
2023-02-17T00:13:58.161Z,89.49
2023-02-17T00:16:28.105Z,89.34
2023-02-17T00:18:59.037Z,89.23
2023-02-17T00:21:29.635Z,89.81
2023-02-17T00:23:58.838Z,89.76
2023-02-17T00:26:26.871Z,89.89
2023-02-17T00:28:54.844Z,90.01
2023-02-17T00:31:23.981Z,89.80
2023-02-17T00:33:55.860Z,89.79
2023-02-17T00:36:24.989Z,90.59
2023-02-17T00:38:56.269Z,90.74
2023-02-17T00:41:25.959Z,91.09
2023-02-17T00:43:54.071Z,90.82
2023-02-17T00:46:23.348Z,91.03
2023-02-17T00:48:55.773Z,91.22
2023-02-17T00:51:26.077Z,91.04
2023-02-17T00:53:54.577Z,90.89
2023-02-17T00:56:22.444Z,91.25
2023-02-17T00:58:50.329Z,91.17
2023-02-17T01:01:18.262Z,90.93
2023-02-17T01:03:46.216Z,91.17
2023-02-17T01:06:31.487Z,91.60
2023-02-17T01:08:59.867Z,91.58
2023-02-17T01:11:32.839Z,90.94
2023-02-17T01:14:02.526Z,91.46
2023-02-17T01:16:38.708Z,91.42
2023-02-17T01:19:13.100Z,91.35
2023-02-17T01:21:41.038Z,91.34
2023-02-17T01:24:12.933Z,91.47
2023-02-17T01:26:40.940Z,91.68
2023-02-17T01:29:09.161Z,91.59
2023-02-17T01:31:37.776Z,91.52
2023-02-17T01:34:05.955Z,91.54
2023-02-17T01:36:33.926Z,91.18
2023-02-17T01:39:02.016Z,91.37
2023-02-17T01:41:30.638Z,91.12
2023-02-17T01:44:04.893Z,91.25
2023-02-17T01:46:34.609Z,91.22
2023-02-17T01:49:15.642Z,91.08
2023-02-17T01:51:47.761Z,91.06
2023-02-17T01:54:31.735Z,90.93
2023-02-17T01:57:02.080Z,91.15
2023-02-17T01:59:31.602Z,90.78
2023-02-17T02:02:04.753Z,90.92
2023-02-17T02:04:37.605Z,90.93
2023-02-17T02:07:11.065Z,90.95
2023-02-17T02:09:47.314Z,90.96
2023-02-17T02:12:21.663Z,90.78
2023-02-17T02:14:51.610Z,90.46
2023-02-17T02:17:36.755Z,90.22
2023-02-17T02:20:43.080Z,90.28
2023-02-17T02:23:50.097Z,90.29
2023-02-17T02:26:42.595Z,90.28
2023-02-17T02:29:48.183Z,90.17
2023-02-17T02:33:08.582Z,90.17
2023-02-17T02:35:57.714Z,90.20
2023-02-17T02:38:34.281Z,90.01
2023-02-17T02:41:14.066Z,90.01
2023-02-17T02:43:43.194Z,89.97
2023-02-17T02:46:11.245Z,89.83
2023-02-17T02:48:39.845Z,89.92
2023-02-17T02:51:21.615Z,89.80
2023-02-17T02:54:08.675Z,89.99
2023-02-17T02:56:58.769Z,89.89
2023-02-17T03:00:06.020Z,89.85
2023-02-17T03:02:46.174Z,90.01
2023-02-17T03:05:23.484Z,89.80
2023-02-17T03:08:08.712Z,89.75
2023-02-17T03:10:46.504Z,89.77
2023-02-17T03:13:14.990Z,89.54
2023-02-17T03:15:44.524Z,89.50
2023-02-17T03:18:12.551Z,89.48
2023-02-17T03:20:50.968Z,89.53
2023-02-17T03:23:19.973Z,89.51
2023-02-17T03:25:47.859Z,89.42
2023-02-17T03:28:15.863Z,89.17
2023-02-17T03:30:44.359Z,89.33
2023-02-17T03:33:12.319Z,89.19
2023-02-17T03:35:40.840Z,88.95
2023-02-17T03:38:08.709Z,88.75
2023-02-17T03:40:37.490Z,88.61
2023-02-17T03:43:05.393Z,88.51
2023-02-17T03:45:36.969Z,88.33
2023-02-17T03:48:05.019Z,88.34
2023-02-17T03:50:32.908Z,88.37
2023-02-17T03:53:00.773Z,88.29
2023-02-17T03:55:28.649Z,88.44
2023-02-17T03:57:56.610Z,87.57
2023-02-17T04:00:24.766Z,87.71
2023-02-17T04:02:52.683Z,87.98
2023-02-17T04:05:21.116Z,88.02
2023-02-17T04:07:51.804Z,87.81
2023-02-17T04:10:19.860Z,87.84
2023-02-17T04:13:34.073Z,86.99
2023-02-17T04:16:05.791Z,87.34
2023-02-17T04:18:38.413Z,87.18
2023-02-17T04:21:06.895Z,87.45
2023-02-17T04:23:37.260Z,87.04
2023-02-17T04:26:06.846Z,86.96
2023-02-17T04:28:39.451Z,86.77
2023-02-17T04:31:07.528Z,86.67
2023-02-17T04:33:35.711Z,86.77
2023-02-17T04:36:05.178Z,86.52
2023-02-17T04:38:33.927Z,85.53
2023-02-17T04:41:02.279Z,86.02
2023-02-17T04:43:30.657Z,86.38
2023-02-17T04:45:59.400Z,86.30
2023-02-17T04:48:27.392Z,86.31
2023-02-17T04:50:55.411Z,86.34
2023-02-17T04:53:23.683Z,86.51
2023-02-17T04:55:53.524Z,86.06
2023-02-17T04:58:21.834Z,86.01
2023-02-17T05:00:50.930Z,85.66
2023-02-17T05:03:19.192Z,86.02
2023-02-17T05:05:47.570Z,86.31
2023-02-17T05:08:16.050Z,86.09
2023-02-17T05:10:44.009Z,86.06
2023-02-17T05:13:11.933Z,85.55
2023-02-17T05:15:39.865Z,85.74
2023-02-17T05:18:07.857Z,85.89
2023-02-17T05:20:35.784Z,85.67
2023-02-17T05:23:03.776Z,85.53
2023-02-17T05:25:31.983Z,85.51
2023-02-17T05:27:59.926Z,85.09
2023-02-17T05:30:28.856Z,85.66
2023-02-17T05:32:56.919Z,85.34
2023-02-17T05:35:24.984Z,85.51
2023-02-17T05:37:52.885Z,85.49
2023-02-17T05:40:20.935Z,85.21
2023-02-17T05:42:48.832Z,85.33
2023-02-17T05:45:17.301Z,85.49
2023-02-17T05:47:45.552Z,85.54
2023-02-17T05:50:14.019Z,85.10
2023-02-17T05:52:42.056Z,85.31
2023-02-17T05:55:10.082Z,85.12
2023-02-17T05:57:38.032Z,85.43
2023-02-17T06:00:06.785Z,85.85
2023-02-17T06:02:40.360Z,85.64
2023-02-17T06:05:08.670Z,85.96
2023-02-17T06:07:36.616Z,85.84
2023-02-17T06:10:05.259Z,85.47
2023-02-17T06:12:33.141Z,85.38
2023-02-17T06:15:01.068Z,85.54
2023-02-17T06:17:32.181Z,85.52
2023-02-17T06:20:00.182Z,85.72
2023-02-17T06:22:28.554Z,85.58
2023-02-17T06:24:56.469Z,85.67
2023-02-17T06:27:24.639Z,85.80
2023-02-17T06:29:52.728Z,85.29
2023-02-17T06:32:20.686Z,85.63
2023-02-17T06:34:48.746Z,85.87
2023-02-17T06:37:17.301Z,85.77
2023-02-17T06:39:45.255Z,85.63
2023-02-17T06:42:13.581Z,85.52
2023-02-17T06:44:41.508Z,85.21
2023-02-17T06:47:09.938Z,85.36
2023-02-17T06:49:40.404Z,85.59
2023-02-17T06:52:08.737Z,85.57
2023-02-17T06:54:36.710Z,85.82
2023-02-17T06:57:04.744Z,85.74
2023-02-17T06:59:34.185Z,85.86
2023-02-17T07:02:02.740Z,85.99
2023-02-17T07:04:35.243Z,85.29
2023-02-17T07:07:03.303Z,85.23
2023-02-17T07:09:31.241Z,85.06
2023-02-17T07:11:59.228Z,85.46
2023-02-17T07:14:28.120Z,85.33
2023-02-17T07:16:56.140Z,85.14
2023-02-17T07:19:24.627Z,85.51
2023-02-17T07:21:52.837Z,85.40
2023-02-17T07:24:20.880Z,85.32
2023-02-17T07:26:49.024Z,85.55
2023-02-17T07:29:17.004Z,85.57
2023-02-17T07:31:44.965Z,85.70
2023-02-17T07:34:12.959Z,85.39
2023-02-17T07:36:40.974Z,84.91
2023-02-17T07:39:08.895Z,84.89
2023-02-17T07:41:36.975Z,85.08
2023-02-17T07:44:10.167Z,84.85
2023-02-17T07:46:39.876Z,84.38
2023-02-17T07:49:08.415Z,83.67
2023-02-17T07:51:36.381Z,83.86
2023-02-17T07:54:04.799Z,83.85
2023-02-17T07:56:34.070Z,83.55
2023-02-17T07:59:02.083Z,83.37
2023-02-17T08:01:30.050Z,83.47
2023-02-17T08:03:58.061Z,83.72
2023-02-17T08:06:26.694Z,84.09
2023-02-17T08:09:22.585Z,83.45
2023-02-17T08:12:09.666Z,83.08
2023-02-17T08:14:40.505Z,83.20
2023-02-17T08:17:08.948Z,82.42
2023-02-17T08:19:47.489Z,82.41
2023-02-17T08:22:17.616Z,82.82
2023-02-17T08:24:47.388Z,82.45
2023-02-17T08:27:16.101Z,82.23
2023-02-17T08:29:44.966Z,81.46
2023-02-17T08:32:15.111Z,81.07
2023-02-17T08:34:43.154Z,81.44
2023-02-17T08:37:11.735Z,81.21
2023-02-17T08:39:39.835Z,81.39
2023-02-17T08:42:07.855Z,81.81
2023-02-17T08:44:37.303Z,80.97
2023-02-17T08:47:07.217Z,80.75
2023-02-17T08:49:35.935Z,80.74
2023-02-17T08:52:04.370Z,80.79
2023-02-17T08:54:32.771Z,80.62
2023-02-17T08:57:00.853Z,80.46
2023-02-17T08:59:29.275Z,80.29
2023-02-17T09:01:57.710Z,79.77
2023-02-17T09:04:26.001Z,80.14
2023-02-17T09:06:56.894Z,80.42
2023-02-17T09:09:27.029Z,80.89
2023-02-17T09:11:58.740Z,80.94
2023-02-17T09:14:27.019Z,80.94
2023-02-17T09:16:55.942Z,81.32
2023-02-17T09:19:24.657Z,81.97
2023-02-17T09:21:52.768Z,82.43
2023-02-17T09:24:20.754Z,82.53
2023-02-17T09:26:48.800Z,82.68
2023-02-17T09:29:16.740Z,83.35
2023-02-17T09:31:46.633Z,83.81
2023-02-17T09:34:15.071Z,83.97
2023-02-17T09:36:43.270Z,84.03
2023-02-17T09:39:13.811Z,84.17
2023-02-17T09:41:47.872Z,84.52
2023-02-17T09:44:22.006Z,85.61
2023-02-17T09:47:08.259Z,85.47
2023-02-17T09:49:44.952Z,85.53
2023-02-17T09:52:41.427Z,85.85
2023-02-17T09:55:23.357Z,86.33
2023-02-17T09:58:14.024Z,86.07
2023-02-17T10:00:46.870Z,86.24
2023-02-17T10:03:58.861Z,86.94
2023-02-17T10:06:36.406Z,87.35
2023-02-17T10:09:12.914Z,87.18
2023-02-17T10:12:01.437Z,87.12
2023-02-17T10:15:00.721Z,87.75
2023-02-17T10:17:29.226Z,87.61
2023-02-17T10:20:29.011Z,87.40
2023-02-17T10:23:07.337Z,87.79
2023-02-17T10:25:52.167Z,88.16
2023-02-17T10:29:05.054Z,88.30
2023-02-17T10:31:46.789Z,88.06
2023-02-17T10:34:57.736Z,88.15
2023-02-17T10:37:58.964Z,88.63
2023-02-17T10:40:29.270Z,88.77
2023-02-17T10:43:06.316Z,88.99
2023-02-17T10:45:48.047Z,88.88
2023-02-17T10:51:30.512Z,89.03
2023-02-17T10:54:13.976Z,88.82
2023-02-17T10:56:48.234Z,88.86
2023-02-17T10:59:31.166Z,89.46
2023-02-17T11:02:17.105Z,89.52
2023-02-17T11:04:51.331Z,89.22
2023-02-17T11:07:51.773Z,88.90
2023-02-17T11:10:28.410Z,89.22
2023-02-17T11:12:58.782Z,89.53
2023-02-17T11:15:30.755Z,89.23
2023-02-17T11:18:01.649Z,88.88
2023-02-17T11:20:35.247Z,89.20
2023-02-17T11:23:15.838Z,89.63
2023-02-17T11:25:54.765Z,89.17
2023-02-17T11:28:24.991Z,89.05
2023-02-17T11:30:59.130Z,89.40
2023-02-17T11:33:39.416Z,89.56
2023-02-17T11:36:11.382Z,89.24
2023-02-17T11:38:39.258Z,89.55
2023-02-17T11:41:08.844Z,90.22
2023-02-17T11:43:54.321Z,90.38
2023-02-17T11:46:45.168Z,90.43
2023-02-17T11:49:41.243Z,90.38
2023-02-17T11:52:31.864Z,90.43
2023-02-17T11:55:23.651Z,89.91
2023-02-17T11:58:04.875Z,89.95
2023-02-17T12:00:49.708Z,90.12
2023-02-17T12:03:52.799Z,89.79
2023-02-17T12:06:40.522Z,89.71
2023-02-17T12:09:24.284Z,89.95
2023-02-17T12:12:18.444Z,90.08
2023-02-17T12:15:25.552Z,89.86
2023-02-17T12:18:32.866Z,90.18
2023-02-17T12:21:16.202Z,90.50
2023-02-17T12:24:02.565Z,90.17
2023-02-17T12:26:42.158Z,90.28
2023-02-17T12:29:10.078Z,90.65
2023-02-17T12:31:56.750Z,90.35
2023-02-17T12:35:04.692Z,89.98
2023-02-17T12:37:40.581Z,90.41
2023-02-17T12:40:48.919Z,90.36
2023-02-17T12:43:30.476Z,89.80
2023-02-17T12:46:00.592Z,90.12
2023-02-17T12:49:01.647Z,90.68
2023-02-17T12:51:39.450Z,90.22
2023-02-17T12:54:34.655Z,90.05
2023-02-17T12:57:13.768Z,90.62
2023-02-17T12:59:45.360Z,90.23
2023-02-17T13:02:25.722Z,90.20
2023-02-17T13:04:59.366Z,90.53
2023-02-17T13:08:17.707Z,90.58
2023-02-17T13:10:45.882Z,90.60
2023-02-17T13:13:44.887Z,90.22
2023-02-17T13:16:19.437Z,90.29
2023-02-17T13:18:50.607Z,90.89
2023-02-17T13:21:28.695Z,90.53
2023-02-17T13:24:09.014Z,90.33
2023-02-17T13:26:42.169Z,90.64
2023-02-17T13:29:25.556Z,90.74
2023-02-17T13:31:56.312Z,90.70
2023-02-17T13:34:28.795Z,90.47
2023-02-17T13:36:57.787Z,90.56
2023-02-17T13:39:30.644Z,90.36
2023-02-17T13:42:02.621Z,90.15
2023-02-17T13:44:40.747Z,90.26
2023-02-17T13:47:38.256Z,90.49
2023-02-17T13:50:10.691Z,90.15
2023-02-17T13:52:43.152Z,89.69
2023-02-17T14:08:42.328Z,88.04
2023-02-17T14:11:22.066Z,86.90
2023-02-17T14:13:54.982Z,87.37
2023-02-17T14:16:41.228Z,87.76
2023-02-17T14:19:16.954Z,87.22
2023-02-17T14:22:20.064Z,87.26
2023-02-17T14:25:04.241Z,87.55
2023-02-17T14:27:50.286Z,88.00
2023-02-17T14:30:35.424Z,86.89
2023-02-17T14:33:16.315Z,87.12
2023-02-17T14:35:55.070Z,87.49
2023-02-17T14:38:59.064Z,87.66
2023-02-17T14:41:27.501Z,87.38
2023-02-17T14:43:55.695Z,87.60
2023-02-17T14:46:24.119Z,88.13
2023-02-17T14:48:52.961Z,88.59
2023-02-17T14:51:22.958Z,88.20
2023-02-17T14:53:52.071Z,88.27
2023-02-17T14:56:26.279Z,88.61
2023-02-17T14:58:55.825Z,89.35
2023-02-17T15:01:25.677Z,89.57
2023-02-17T15:03:57.002Z,89.89
2023-02-17T15:06:30.710Z,90.83
2023-02-17T15:09:04.511Z,91.05
2023-02-17T15:11:36.989Z,91.30
2023-02-17T15:14:06.436Z,91.85
2023-02-17T15:16:37.548Z,92.57
2023-02-17T15:19:12.229Z,92.86
2023-02-17T15:21:46.051Z,93.00
2023-02-17T15:24:21.072Z,93.82
2023-02-17T15:26:49.723Z,94.43
2023-02-17T15:29:21.980Z,94.70
2023-02-17T15:31:52.599Z,94.53
2023-02-17T15:34:24.459Z,95.13
2023-02-17T15:36:52.659Z,95.32
2023-02-17T15:39:22.704Z,95.91
2023-02-17T15:41:53.733Z,96.26
2023-02-17T15:44:41.232Z,96.56
2023-02-17T15:47:16.112Z,96.80
2023-02-17T15:49:44.012Z,97.03
2023-02-17T15:52:13.712Z,96.73
2023-02-17T15:54:43.464Z,96.74
2023-02-17T15:57:24.395Z,97.07
2023-02-17T15:59:55.426Z,97.08
2023-02-17T16:02:26.066Z,96.93
2023-02-17T16:04:54.088Z,97.18
2023-02-17T16:07:22.392Z,97.15
2023-02-17T16:09:50.752Z,97.02
2023-02-17T16:12:27.344Z,97.25
2023-02-17T16:14:57.255Z,97.39
2023-02-17T16:17:26.067Z,97.21
2023-02-17T16:19:54.279Z,97.46
2023-02-17T16:22:22.544Z,97.09
2023-02-17T16:24:50.500Z,97.22
2023-02-17T16:27:18.606Z,97.09
2023-02-17T16:29:46.692Z,97.10
2023-02-17T16:32:14.705Z,96.48
2023-02-17T16:34:44.840Z,96.31
2023-02-17T16:37:17.436Z,96.62
2023-02-17T16:39:46.024Z,97.08
2023-02-17T16:42:15.553Z,96.23
2023-02-17T16:44:44.308Z,96.44
2023-02-17T16:47:25.565Z,96.82
2023-02-17T16:49:53.673Z,96.97
2023-02-17T16:52:28.175Z,97.24
2023-02-17T16:54:56.068Z,97.00
2023-02-17T16:57:32.337Z,96.90
2023-02-17T17:00:22.377Z,97.62
2023-02-17T17:02:50.934Z,97.80
2023-02-17T17:05:20.202Z,97.21
2023-02-17T17:07:48.187Z,97.53
2023-02-17T17:10:23.485Z,97.81
2023-02-17T17:12:51.435Z,97.71
2023-02-17T17:15:19.584Z,96.90
2023-02-17T17:18:05.751Z,97.28
2023-02-17T17:31:20.280Z,94.47
2023-02-17T17:33:49.454Z,93.42
2023-02-17T17:36:36.054Z,93.07
2023-02-17T17:39:06.674Z,93.11
2023-02-17T17:41:35.105Z,93.05
2023-02-17T17:44:03.340Z,93.09
2023-02-17T17:46:37.504Z,92.85
2023-02-17T17:49:09.139Z,93.04
2023-02-17T17:51:39.237Z,93.26
2023-02-17T17:54:08.174Z,93.43
2023-02-17T17:56:39.437Z,93.03
2023-02-17T17:59:07.447Z,93.48
2023-02-17T18:01:35.588Z,93.31
2023-02-17T18:04:04.692Z,93.13
2023-02-17T18:06:41.925Z,92.81
2023-02-17T18:09:25.840Z,92.09
2023-02-17T18:12:03.081Z,92.52
2023-02-17T18:14:32.098Z,92.92
2023-02-17T18:17:00.259Z,92.82
2023-02-17T18:19:30.636Z,92.80
2023-02-17T18:21:58.604Z,93.37
2023-02-17T18:24:26.737Z,93.67
2023-02-17T18:26:55.195Z,93.47
2023-02-17T18:29:23.378Z,93.67
2023-02-17T18:31:51.388Z,94.10
2023-02-17T18:34:19.434Z,94.81
2023-02-17T18:36:47.397Z,94.88
2023-02-17T18:39:15.550Z,95.03
2023-02-17T18:41:44.653Z,95.22
2023-02-17T18:44:13.955Z,95.73
2023-02-17T18:46:42.647Z,96.06
2023-02-17T18:49:17.425Z,95.69
2023-02-17T18:51:45.918Z,95.81
2023-02-17T18:54:14.822Z,95.92
2023-02-17T18:56:42.779Z,95.99
2023-02-17T18:59:10.721Z,95.84
2023-02-17T19:01:40.966Z,95.53
2023-02-17T19:04:09.901Z,95.34
2023-02-17T19:06:37.803Z,95.48
2023-02-17T19:09:06.493Z,95.45
2023-02-17T19:11:35.088Z,94.83
2023-02-17T19:14:04.237Z,94.92
2023-02-17T19:16:33.446Z,94.69
2023-02-17T19:19:01.995Z,94.47
2023-02-17T19:21:30.828Z,94.49
2023-02-17T19:23:58.982Z,94.07
2023-02-17T19:26:26.948Z,93.91
2023-02-17T19:28:54.968Z,93.78
2023-02-17T19:31:23.395Z,93.29
2023-02-17T19:33:51.421Z,92.96
2023-02-17T19:36:23.722Z,93.06
2023-02-17T19:38:51.677Z,93.14
2023-02-17T19:41:19.856Z,92.60
2023-02-17T19:43:47.740Z,93.09
2023-02-17T19:46:19.932Z,93.61
2023-02-17T19:48:47.885Z,94.22
2023-02-17T19:51:15.850Z,94.75
2023-02-17T19:53:44.362Z,95.25
2023-02-17T19:56:14.024Z,95.41
2023-02-17T19:58:44.024Z,96.13
2023-02-17T20:01:16.083Z,96.35
2023-02-17T20:03:44.724Z,97.74
2023-02-17T20:06:21.130Z,97.93
2023-02-17T20:08:59.394Z,98.40
2023-02-17T20:11:28.817Z,98.59
2023-02-17T20:13:59.077Z,98.80
2023-02-17T20:16:28.633Z,98.85
2023-02-17T20:18:57.570Z,98.93
2023-02-17T20:21:28.315Z,98.75
2023-02-17T20:23:57.742Z,98.84
2023-02-17T20:26:32.510Z,99.41
2023-02-17T20:29:02.046Z,99.27
2023-02-17T20:31:30.440Z,98.96
2023-02-17T20:34:04.015Z,99.18
2023-02-17T20:36:32.254Z,99.65
2023-02-17T20:39:00.441Z,99.33
2023-02-17T20:41:28.491Z,99.40
2023-02-17T20:43:59.556Z,99.40
2023-02-17T20:46:32.028Z,99.09
2023-02-17T20:48:59.931Z,99.09
2023-02-17T20:51:27.924Z,99.18
2023-02-17T20:53:55.804Z,99.08
2023-02-17T20:56:25.090Z,99.02
2023-02-17T20:58:53.424Z,98.24
2023-02-17T21:01:21.346Z,98.53
2023-02-17T21:03:49.427Z,98.55
2023-02-17T21:06:20.568Z,97.98
2023-02-17T21:08:51.865Z,97.19
2023-02-17T21:11:20.094Z,97.73
2023-02-17T21:13:48.087Z,97.27
2023-02-17T21:16:21.098Z,97.16
2023-02-17T21:18:49.292Z,96.59
2023-02-17T21:21:18.023Z,96.20
2023-02-17T21:23:48.792Z,96.05
2023-02-17T21:26:18.076Z,96.08
2023-02-17T21:28:47.030Z,95.99
2023-02-17T21:31:15.974Z,96.26
2023-02-17T21:33:44.211Z,95.94
2023-02-17T21:36:14.973Z,96.11
2023-02-17T21:38:43.130Z,96.19
2023-02-17T21:41:18.485Z,96.49
2023-02-17T21:44:06.590Z,95.83
2023-02-17T21:46:37.534Z,95.49
2023-02-17T21:49:05.514Z,95.83
2023-02-17T21:51:33.465Z,96.27
2023-02-17T21:54:01.446Z,96.85
2023-02-17T21:56:29.413Z,97.10
2023-02-17T21:58:57.522Z,97.48
2023-02-17T22:01:27.408Z,97.44
2023-02-17T22:03:55.976Z,96.83
2023-02-17T22:06:28.009Z,97.37
2023-02-17T22:08:57.532Z,97.23
2023-02-17T22:11:31.103Z,97.01
2023-02-17T22:14:01.888Z,96.83
2023-02-17T22:16:31.987Z,96.04
2023-02-17T22:19:00.616Z,96.16
2023-02-17T22:21:29.315Z,96.04
2023-02-17T22:23:58.976Z,95.65
2023-02-17T22:26:28.718Z,95.23
2023-02-17T22:28:57.504Z,94.47
2023-02-17T22:31:27.997Z,94.50
2023-02-17T22:33:57.332Z,94.53
2023-02-17T22:36:27.571Z,93.66
2023-02-17T22:38:55.583Z,93.23
2023-02-17T22:41:25.511Z,93.24
2023-02-17T22:43:54.446Z,92.98
2023-02-17T22:46:25.776Z,92.33
2023-02-17T22:48:55.825Z,91.62
2023-02-17T22:51:28.073Z,91.96
2023-02-17T22:53:56.311Z,91.73
2023-02-17T22:56:24.340Z,91.80
2023-02-17T22:58:56.559Z,91.09
2023-02-17T23:01:25.464Z,91.34
2023-02-17T23:03:54.792Z,90.94
2023-02-17T23:06:27.498Z,90.93
2023-02-17T23:08:56.472Z,90.60
2023-02-17T23:11:47.637Z,90.62
2023-02-17T23:14:37.096Z,91.21
2023-02-17T23:17:07.633Z,92.03
2023-02-17T23:19:36.412Z,92.50
2023-02-17T23:22:10.963Z,93.08
2023-02-17T23:24:38.861Z,93.14
2023-02-17T23:27:06.790Z,93.93
2023-02-17T23:29:34.971Z,95.30
2023-02-17T23:32:02.845Z,95.51
2023-02-17T23:34:30.894Z,96.77
2023-02-17T23:36:59.487Z,97.44
2023-02-17T23:39:27.624Z,98.02
2023-02-17T23:41:55.746Z,98.59
2023-02-17T23:44:23.615Z,98.84
2023-02-17T23:46:52.065Z,99.67
2023-02-17T23:49:19.939Z,99.50
2023-02-17T23:51:47.946Z,99.52
2023-02-17T23:54:15.984Z,99.57
2023-02-17T23:56:44.216Z,99.75
2023-02-17T23:59:12.366Z,99.27
